Hostetter, Pennsylvania
Current Conditions -  °F | °C
As of 5:45 PM on Tuesday 21 Oct 2014 (Local Time) from KLBE Reporting Station
Light Rain Light Rain  
Wind Chill: 46°   Ceiling: 2100
Heat Index: 48°   Visibility: 4mi
Dew Point: 48°   Wind: 6mph
Humidity: 100%   Direction: 320°NW
Pressure: 29.94"   Gusts: NA
Location:  40.27°N, 79.4°W
Report Text: KLBE 212145Z 32005KT 4SM -RA BR FEW012 SCT017 BKN021 09/09 A2994
Loading
Personal Weather Stations






























Interactive Weather Map
Tropical Storm Tracking
New forecast layout! Learn more

10-Day Weather Forecast

Advertisements
Track Severe Weather on mobile